Time;durP1;ratioP1;P1;durP2;ratioP2;P2;SDS_P1;SDS_P2;PMS_P1;PMS_P2;Temp;Humidity;BMP_temperature;BMP_pressure;BME280_temperature;BME280_humidity;BME280_pressure;Samples;Min_cycle;Max_cycle;Signal;HPM_P1;HPM_P2
2023/07/03 00:02:18;;;;;;;12.23;3.72;;;;;;;15.25;80.39;100867.78;5046228;28;20114;-58
2023/07/03 00:04:45;;;;;;;9.05;3.42;;;;;;;15.21;80.98;100868.59;5047728;28;20485;-58
2023/07/03 00:07:11;;;;;;;9.32;3.65;;;;;;;15.24;81.00;100876.47;5047130;28;20032;-58
2023/07/03 00:09:36;;;;;;;10.35;3.80;;;;;;;15.23;80.97;100874.72;5047521;28;20021;-57
2023/07/03 00:12:02;;;;;;;10.95;4.10;;;;;;;15.23;80.94;100874.72;5046484;28;20012;-57
2023/07/03 00:14:27;;;;;;;12.55;3.28;;;;;;;15.23;81.66;100869.50;5047945;28;20028;-57
2023/07/03 00:16:52;;;;;;;9.45;3.67;;;;;;;15.26;81.36;100869.53;5047598;28;20396;-58
2023/07/03 00:19:18;;;;;;;14.43;3.85;;;;;;;15.22;81.51;100871.22;5047728;28;20063;-57
2023/07/03 00:21:43;;;;;;;9.80;3.63;;;;;;;15.20;81.75;100865.09;5047856;28;20031;-58
2023/07/03 00:24:13;;;;;;;12.50;3.95;;;;;;;15.10;82.48;100858.91;5047804;28;20021;-58
2023/07/03 00:26:39;;;;;;;13.45;4.30;;;;;;;15.09;82.64;100870.16;5046839;28;20025;-58
2023/07/03 00:29:05;;;;;;;10.30;3.25;;;;;;;15.08;83.08;100871.03;5047837;28;20021;-57
2023/07/03 00:31:30;;;;;;;10.85;3.70;;;;;;;15.07;83.79;100857.97;5047750;28;20033;-58
2023/07/03 00:33:56;;;;;;;14.85;4.03;;;;;;;15.08;84.02;100865.81;5047299;28;20414;-57
2023/07/03 00:36:21;;;;;;;13.52;4.13;;;;;;;15.05;84.45;100864.91;5047187;28;20385;-57
2023/07/03 00:38:47;;;;;;;11.18;3.65;;;;;;;15.01;84.38;100861.38;5047117;28;20045;-57
2023/07/03 00:41:12;;;;;;;12.40;3.95;;;;;;;15.01;84.73;100861.38;5048038;28;20420;-58
2023/07/03 00:43:42;;;;;;;13.43;4.35;;;;;;;15.02;85.06;100860.50;5046652;28;20025;-57
2023/07/03 00:46:11;;;;;;;14.45;3.92;;;;;;;14.95;85.87;100859.53;5047180;28;20013;-57
2023/07/03 00:48:39;;;;;;;15.32;3.42;;;;;;;14.96;85.67;100865.66;5047603;28;20021;-57
2023/07/03 00:51:04;;;;;;;12.43;4.57;;;;;;;14.94;86.41;100862.13;5046748;28;20465;-58
2023/07/03 00:53:30;;;;;;;11.82;3.42;;;;;;;14.95;86.55;100862.16;5047261;28;20035;-58
2023/07/03 00:55:55;;;;;;;12.40;4.32;;;;;;;14.94;86.36;100859.53;5047371;28;20032;-58
2023/07/03 00:58:21;;;;;;;12.63;3.80;;;;;;;14.92;86.45;100858.63;5047407;28;20021;-58
2023/07/03 01:00:56;;;;;;;11.35;3.60;;;;;;;14.89;87.05;100854.25;5047133;28;20017;-58
2023/07/03 01:03:32;;;;;;;9.57;3.17;;;;;;;14.91;87.15;100859.50;5047102;28;20017;-57
2023/07/03 01:06:00;;;;;;;13.77;3.80;;;;;;;14.91;87.49;100849.06;5047799;28;20029;-57
2023/07/03 01:08:26;;;;;;;10.38;3.75;;;;;;;14.89;87.38;100852.50;5047811;28;20017;-58
2023/07/03 01:10:53;;;;;;;12.82;3.20;;;;;;;14.89;87.69;100851.66;5046689;28;20032;-58
2023/07/03 01:13:21;;;;;;;15.30;3.75;;;;;;;14.90;88.09;100856.00;5047599;28;20163;-56
2023/07/03 01:15:47;;;;;;;8.32;3.58;;;;;;;14.89;88.48;100852.50;5047462;28;20024;-57
2023/07/03 01:18:14;;;;;;;11.50;4.47;;;;;;;14.85;88.95;100850.72;5047014;28;20032;-58
2023/07/03 01:20:47;;;;;;;11.77;3.80;;;;;;;14.80;89.08;100854.09;5047343;28;20032;-57
2023/07/03 01:23:22;;;;;;;9.40;3.45;;;;;;;14.82;89.09;100848.06;5046377;28;20032;-58
2023/07/03 01:25:49;;;;;;;10.68;3.60;;;;;;;14.77;89.87;100847.97;5046059;28;20473;-57
2023/07/03 01:28:18;;;;;;;14.00;4.07;;;;;;;14.76;90.22;100853.16;5043865;28;20017;-57
2023/07/03 01:30:44;;;;;;;12.95;3.72;;;;;;;14.73;90.61;100847.91;5038812;28;20071;-58
2023/07/03 01:33:17;;;;;;;10.63;3.72;;;;;;;14.70;91.15;100858.28;5042758;28;20036;-58
2023/07/03 01:35:44;;;;;;;13.63;3.70;;;;;;;14.71;91.29;100853.09;5039487;28;20028;-57
2023/07/03 01:38:10;;;;;;;12.88;3.88;;;;;;;14.67;91.89;100848.69;5046707;28;20068;-57
2023/07/03 01:40:37;;;;;;;10.38;4.10;;;;;;;14.63;92.25;100847.75;5046871;28;20052;-57
2023/07/03 01:43:04;;;;;;;14.45;4.45;;;;;;;14.60;92.87;100846.84;5045472;28;20036;-57
2023/07/03 01:45:33;;;;;;;14.52;4.97;;;;;;;14.58;93.37;100839.00;5046709;28;20473;-57
2023/07/03 01:47:58;;;;;;;22.10;4.13;;;;;;;14.58;93.38;100851.16;5046328;28;20023;-58
2023/07/03 01:50:28;;;;;;;16.23;4.03;;;;;;;14.57;94.16;100847.66;5046978;28;20544;-56
2023/07/03 01:52:57;;;;;;;12.77;3.55;;;;;;;14.55;94.63;100844.16;5046485;28;20041;-58
2023/07/03 01:55:53;;;;;;;14.90;4.00;;;;;;;14.55;94.82;100848.50;5046480;28;20029;-57
2023/07/03 01:58:42;;;;;;;15.80;3.47;;;;;;;14.55;95.03;100838.06;5046500;28;22004;-57
2023/07/03 02:01:15;;;;;;;14.90;4.22;;;;;;;14.55;95.43;100841.56;5047050;28;20176;-58
2023/07/03 02:03:46;;;;;;;13.57;4.22;;;;;;;14.50;96.49;100833.66;5049561;28;20520;-58
2023/07/03 02:06:33;;;;;;;22.92;4.22;;;;;;;14.49;96.06;100839.72;5047789;28;20469;-59
2023/07/03 02:09:00;;;;;;;20.00;4.93;;;;;;;14.47;97.17;100837.94;5043637;28;20409;-57
2023/07/03 02:11:27;;;;;;;15.27;4.43;;;;;;;14.47;97.50;100827.50;5050245;28;20032;-58
2023/07/03 02:13:53;;;;;;;14.98;4.30;;;;;;;14.45;97.67;100829.22;5050241;28;20392;-58
2023/07/03 02:16:18;;;;;;;16.52;4.65;;;;;;;14.43;98.26;100829.19;5049992;28;20037;-58
2023/07/03 02:18:46;;;;;;;19.27;4.00;;;;;;;14.39;98.78;100828.25;5048378;28;20025;-58
2023/07/03 02:21:11;;;;;;;15.05;4.05;;;;;;;14.38;99.39;100826.53;5042708;28;20130;-57
2023/07/03 02:23:37;;;;;;;12.93;4.28;;;;;;;14.37;100.00;100829.97;5049481;28;20370;-57
2023/07/03 02:26:02;;;;;;;17.40;4.70;;;;;;;14.35;100.00;100831.69;5049558;28;20083;-59
2023/07/03 02:28:27;;;;;;;17.45;5.38;;;;;;;14.33;100.00;100836.00;5049065;28;20029;-59
2023/07/03 02:30:52;;;;;;;18.25;4.47;;;;;;;14.30;100.00;100833.34;5049812;28;20047;-59
2023/07/03 02:33:18;;;;;;;18.05;5.32;;;;;;;14.29;100.00;100836.78;5049378;28;20285;-57
2023/07/03 02:35:43;;;;;;;17.15;4.68;;;;;;;14.24;100.00;100830.63;5050130;28;20466;-58
2023/07/03 02:38:09;;;;;;;20.23;5.32;;;;;;;14.24;100.00;100828.03;5049351;28;20037;-58
2023/07/03 02:40:36;;;;;;;15.00;4.70;;;;;;;14.19;100.00;100820.16;5049216;28;20044;-58
2023/07/03 02:43:03;;;;;;;20.35;4.97;;;;;;;14.15;100.00;100827.03;5049248;28;20465;-56
2023/07/03 02:45:33;;;;;;;18.88;5.25;;;;;;;14.12;100.00;100819.13;5049528;28;20043;-58
2023/07/03 02:47:58;;;;;;;20.77;4.50;;;;;;;14.13;100.00;100826.13;5048415;28;20494;-58
2023/07/03 02:50:24;;;;;;;19.73;4.20;;;;;;;14.13;100.00;100820.03;5049195;28;20065;-57
2023/07/03 02:52:49;;;;;;;19.40;5.35;;;;;;;14.13;100.00;100826.13;5048854;28;20404;-57
2023/07/03 02:55:14;;;;;;;17.20;5.43;;;;;;;14.08;100.00;100817.34;5049903;28;20036;-57
2023/07/03 02:57:40;;;;;;;18.00;5.00;;;;;;;14.03;100.00;100813.78;5049304;28;20037;-58
2023/07/03 03:00:08;;;;;;;17.58;4.75;;;;;;;13.99;100.00;100806.75;5049891;28;20032;-58
2023/07/03 03:02:33;;;;;;;17.90;4.88;;;;;;;13.95;100.00;100815.38;5048107;28;20031;-58
2023/07/03 03:04:58;;;;;;;18.90;5.60;;;;;;;13.92;100.00;100806.63;5049383;28;20024;-58
2023/07/03 03:07:24;;;;;;;22.40;5.53;;;;;;;13.85;100.00;100815.19;5041888;28;20025;-58
2023/07/03 03:09:49;;;;;;;13.65;4.88;;;;;;;13.86;100.00;100816.09;5047839;28;20453;-58
2023/07/03 03:12:14;;;;;;;19.48;5.93;;;;;;;13.86;100.00;100806.56;5048706;28;20455;-57
2023/07/03 03:14:39;;;;;;;17.40;4.70;;;;;;;13.81;100.00;100809.06;5047741;28;20020;-58
2023/07/03 03:17:05;;;;;;;23.58;6.75;;;;;;;13.80;100.00;100809.91;5046303;28;20078;-58
2023/07/03 03:19:30;;;;;;;22.50;5.25;;;;;;;13.78;100.00;100808.16;5047466;28;20017;-58
2023/07/03 03:21:55;;;;;;;14.75;4.80;;;;;;;13.78;100.00;100808.16;5046992;28;20033;-58
2023/07/03 03:24:21;;;;;;;19.88;5.00;;;;;;;13.73;100.00;100805.44;5046766;28;20024;-58
2023/07/03 03:26:46;;;;;;;22.85;5.30;;;;;;;13.73;100.00;100802.84;5047241;28;20029;-57
2023/07/03 03:29:11;;;;;;;19.67;4.70;;;;;;;13.72;100.00;100808.03;5045925;28;20385;-56
2023/07/03 03:31:36;;;;;;;18.40;5.63;;;;;;;13.71;100.00;100811.50;5046278;28;20036;-57
2023/07/03 03:34:02;;;;;;;18.83;5.03;;;;;;;13.69;100.00;100804.50;5035493;28;20021;-57
2023/07/03 03:36:27;;;;;;;21.80;5.45;;;;;;;13.72;100.00;100802.81;5044089;28;20032;-57
2023/07/03 03:38:52;;;;;;;20.38;5.47;;;;;;;13.73;100.00;100812.38;5048757;28;20049;-58
2023/07/03 03:41:18;;;;;;;17.35;5.20;;;;;;;13.74;100.00;100803.72;5046518;28;20100;-58
2023/07/03 03:43:46;;;;;;;26.17;7.47;;;;;;;13.69;100.00;100804.50;5048750;28;20075;-59
2023/07/03 03:46:11;;;;;;;20.48;5.60;;;;;;;13.67;100.00;100798.38;5048530;28;20040;-59
2023/07/03 03:48:36;;;;;;;25.83;6.18;;;;;;;13.66;100.00;100807.06;5048758;28;20029;-59
2023/07/03 03:51:02;;;;;;;16.88;5.38;;;;;;;13.65;100.00;100807.88;5047701;28;20104;-58
2023/07/03 03:53:27;;;;;;;22.55;5.43;;;;;;;13.64;100.00;100795.75;5048408;28;20057;-58
2023/07/03 03:55:53;;;;;;;21.15;6.28;;;;;;;13.63;100.00;100794.00;5048444;28;20526;-58
2023/07/03 03:58:20;;;;;;;21.73;5.47;;;;;;;13.65;100.00;100802.69;5036557;28;20025;-58
2023/07/03 04:00:46;;;;;;;18.23;5.05;;;;;;;13.63;100.00;100798.31;5045733;28;20025;-57
2023/07/03 04:03:12;;;;;;;14.95;4.82;;;;;;;13.65;100.00;100807.88;5043320;28;20039;-57
2023/07/03 04:05:39;;;;;;;21.85;6.10;;;;;;;13.66;100.00;100811.38;5047184;28;20051;-58
2023/07/03 04:08:05;;;;;;;18.30;4.93;;;;;;;13.65;100.00;100812.25;5048490;28;20205;-58
2023/07/03 04:10:30;;;;;;;23.08;5.40;;;;;;;13.66;100.00;100811.38;5047430;28;20032;-58
2023/07/03 04:12:55;;;;;;;19.30;5.28;;;;;;;13.67;100.00;100811.41;5047889;28;20032;-58
2023/07/03 04:15:24;;;;;;;23.23;6.22;;;;;;;13.68;100.00;100807.09;5047968;28;20047;-59
2023/07/03 04:17:50;;;;;;;25.52;5.65;;;;;;;13.64;100.00;100805.25;5035022;28;20056;-58
2023/07/03 04:20:15;;;;;;;19.80;5.57;;;;;;;13.65;100.00;100807.88;5046859;28;20035;-57
2023/07/03 04:22:41;;;;;;;25.27;6.32;;;;;;;13.66;100.00;100808.78;5047189;28;20071;-58
2023/07/03 04:25:07;;;;;;;22.02;5.80;;;;;;;13.68;100.00;100807.97;5047160;28;20111;-58
2023/07/03 04:27:33;;;;;;;20.10;5.75;;;;;;;13.70;100.00;100815.81;5046997;28;20099;-57
2023/07/03 04:29:58;;;;;;;18.98;5.80;;;;;;;13.73;100.00;100805.44;5032642;28;20048;-59
2023/07/03 04:32:23;;;;;;;24.00;6.10;;;;;;;13.75;100.00;100808.06;5046810;28;20400;-59
2023/07/03 04:34:48;;;;;;;18.70;5.82;;;;;;;13.78;100.00;100805.53;5046590;28;20020;-58
2023/07/03 04:37:14;;;;;;;23.65;5.78;;;;;;;13.77;100.00;100809.88;5046751;28;20438;-58
2023/07/03 04:39:39;;;;;;;19.77;5.28;;;;;;;13.72;100.00;100808.91;5046208;28;20053;-57
2023/07/03 04:42:07;;;;;;;16.83;5.38;;;;;;;13.74;100.00;100821.94;5047391;28;20075;-57
2023/07/03 04:44:33;;;;;;;22.70;6.63;;;;;;;13.77;100.00;100819.41;5045830;28;20025;-57
2023/07/03 04:47:04;;;;;;;17.65;7.40;;;;;;;13.79;100.00;100815.09;5046765;28;20028;-57
2023/07/03 04:49:30;;;;;;;21.75;5.53;;;;;;;13.85;100.00;100817.81;5034676;28;20021;-57
2023/07/03 04:51:56;;;;;;;25.20;6.43;;;;;;;13.85;100.00;100830.81;5046950;28;20502;-56
2023/07/03 04:54:21;;;;;;;20.38;6.35;;;;;;;13.86;100.00;100830.00;5045452;28;20438;-57
2023/07/03 04:56:48;;;;;;;21.77;6.20;;;;;;;13.83;100.00;100827.34;5045557;28;20051;-58
2023/07/03 04:59:14;;;;;;;21.77;6.72;;;;;;;13.86;100.00;100832.59;5040753;28;20083;-58
2023/07/03 05:01:42;;;;;;;18.73;5.70;;;;;;;13.88;100.00;100830.91;5039474;28;20028;-58
2023/07/03 05:04:08;;;;;;;19.85;5.65;;;;;;;13.91;100.00;100833.56;5046106;28;20040;-58
2023/07/03 05:06:33;;;;;;;19.90;6.10;;;;;;;13.96;100.00;100837.97;5041652;28;20442;-57
2023/07/03 05:08:59;;;;;;;21.10;5.95;;;;;;;14.02;100.00;100843.28;5043273;28;20507;-57
2023/07/03 05:11:24;;;;;;;16.40;5.78;;;;;;;14.04;100.00;100842.47;5043565;28;20086;-57
2023/07/03 05:13:49;;;;;;;19.27;5.53;;;;;;;14.04;100.00;100841.59;5043233;28;20029;-56
2023/07/03 05:16:15;;;;;;;23.80;6.18;;;;;;;14.05;100.00;100849.44;5042415;28;20025;-57
2023/07/03 05:18:40;;;;;;;20.65;5.78;;;;;;;14.09;100.00;100847.75;5042278;28;20086;-57
2023/07/03 05:21:06;;;;;;;20.27;5.95;;;;;;;14.13;100.00;100848.69;5043712;28;20030;-58
2023/07/03 05:23:31;;;;;;;17.23;5.07;;;;;;;14.20;100.00;100852.25;5043606;28;20025;-57
2023/07/03 05:25:57;;;;;;;19.83;5.72;;;;;;;14.27;100.00;100854.13;5043865;28;20136;-58
2023/07/03 05:28:24;;;;;;;22.85;6.30;;;;;;;14.36;100.00;100859.50;5042782;28;20362;-58
2023/07/03 05:30:56;;;;;;;16.38;5.15;;;;;;;14.49;100.00;100855.38;5043963;28;20029;-59
2023/07/03 05:33:23;;;;;;;20.98;5.85;;;;;;;14.62;100.00;100866.00;5043607;28;20031;-57
2023/07/03 05:35:48;;;;;;;20.75;5.65;;;;;;;14.76;100.00;100863.59;5044393;28;20036;-58
2023/07/03 05:38:14;;;;;;;14.63;5.40;;;;;;;14.93;100.00;100863.00;5045277;28;20425;-57
2023/07/03 05:40:39;;;;;;;21.00;5.53;;;;;;;15.09;100.00;100867.56;5047556;28;20117;-59
2023/07/03 05:43:04;;;;;;;12.93;4.75;;;;;;;15.20;100.00;100869.47;5047116;28;20201;-59
2023/07/03 05:45:29;;;;;;;15.05;5.30;;;;;;;15.22;100.00;100872.94;5047936;28;20025;-56
2023/07/03 05:47:55;;;;;;;17.70;5.15;;;;;;;15.23;100.00;100874.72;5047265;28;20431;-57
2023/07/03 05:50:20;;;;;;;20.05;5.28;;;;;;;15.17;100.00;100874.63;5047403;28;20025;-58
2023/07/03 05:52:45;;;;;;;18.20;5.25;;;;;;;15.11;100.00;100871.06;5046661;28;20028;-58
2023/07/03 05:55:11;;;;;;;20.50;6.05;;;;;;;15.11;100.00;100873.69;5048389;28;20055;-58
2023/07/03 05:57:37;;;;;;;17.27;5.32;;;;;;;15.10;100.00;100871.94;5047488;28;20025;-58
2023/07/03 06:00:10;;;;;;;19.65;6.00;;;;;;;15.12;100.00;100877.19;5045051;28;20028;-58
2023/07/03 06:02:35;;;;;;;21.20;6.38;;;;;;;15.12;100.00;100875.47;5047585;28;20692;-57
2023/07/03 06:05:01;;;;;;;20.48;6.57;;;;;;;15.12;100.00;100877.19;5046366;28;20076;-57
2023/07/03 06:07:26;;;;;;;20.95;5.90;;;;;;;15.17;100.00;100877.22;5043965;28;20036;-58
2023/07/03 06:09:51;;;;;;;12.32;5.05;;;;;;;15.18;100.00;100873.78;5047049;28;20025;-59
2023/07/03 06:12:16;;;;;;;17.52;5.57;;;;;;;15.22;100.00;100872.94;5046639;28;20782;-58
2023/07/03 06:14:42;;;;;;;19.23;5.38;;;;;;;15.26;100.00;100869.53;5047812;28;20052;-58
2023/07/03 06:17:07;;;;;;;18.05;6.40;;;;;;;15.30;100.00;100876.56;5044260;28;20037;-58
2023/07/03 06:19:32;;;;;;;17.30;5.30;;;;;;;15.35;100.00;100872.25;5046347;28;20017;-59
2023/07/03 06:21:58;;;;;;;20.95;5.35;;;;;;;15.40;100.00;100881.91;5048596;28;20047;-58
2023/07/03 06:24:23;;;;;;;16.45;5.70;;;;;;;15.43;100.00;100876.72;5048968;28;20025;-59
2023/07/03 06:26:50;;;;;;;17.55;5.70;;;;;;;15.42;100.00;100880.16;5049176;28;20064;-58
2023/07/03 06:29:15;;;;;;;17.67;4.78;;;;;;;15.44;100.00;100878.44;5049681;28;20423;-58
2023/07/03 06:31:40;;;;;;;14.77;5.40;;;;;;;15.44;100.00;100875.84;5049314;28;20036;-58
2023/07/03 06:34:06;;;;;;;17.23;5.28;;;;;;;15.48;100.00;100875.91;5048751;28;20035;-60
2023/07/03 06:36:32;;;;;;;19.38;5.30;;;;;;;15.52;100.00;100876.84;5048367;28;20032;-59
2023/07/03 06:38:58;;;;;;;16.77;5.13;;;;;;;15.59;100.00;100876.03;5048691;28;20041;-56
2023/07/03 06:41:27;;;;;;;15.30;4.95;;;;;;;15.67;100.00;100880.47;5048750;28;20379;-59
2023/07/03 06:43:53;;;;;;;14.73;5.22;;;;;;;15.71;100.00;100874.41;5048698;28;20038;-58
2023/07/03 06:46:19;;;;;;;11.75;4.13;;;;;;;15.77;100.00;100876.22;5048473;28;20055;-58
2023/07/03 06:48:44;;;;;;;20.08;5.10;;;;;;;15.78;100.00;100867.50;5047652;28;20043;-57
2023/07/03 06:51:12;;;;;;;11.40;4.80;;;;;;;15.80;100.00;100871.03;5048719;28;20029;-57
2023/07/03 06:53:37;;;;;;;13.30;4.70;;;;;;;15.79;100.00;100864.94;5048422;28;20535;-59
2023/07/03 06:56:03;;;;;;;12.23;4.15;;;;;;;15.84;100.00;100863.25;5048832;28;20112;-58
2023/07/03 06:58:30;;;;;;;18.77;5.05;;;;;;;15.89;100.00;100865.00;5044184;28;20025;-59
2023/07/03 07:00:56;;;;;;;17.17;3.95;;;;;;;15.96;100.00;100865.09;5046311;28;20028;-59
2023/07/03 07:03:22;;;;;;;12.10;4.72;;;;;;;16.02;100.00;100861.72;5047076;28;20013;-59
2023/07/03 07:05:47;;;;;;;14.68;4.43;;;;;;;16.06;100.00;100873.94;5046595;28;20052;-59
2023/07/03 07:08:16;;;;;;;19.83;5.03;;;;;;;16.12;100.00;100877.50;5046897;28;20055;-58
2023/07/03 07:10:43;;;;;;;15.75;4.28;;;;;;;16.17;100.00;100881.88;5046282;28;20036;-59
2023/07/03 07:13:09;;;;;;;16.27;5.10;;;;;;;16.19;100.00;100889.75;5046397;28;20028;-58
2023/07/03 07:15:39;;;;;;;14.63;4.32;;;;;;;16.22;100.00;100895.00;5048021;28;20484;-58
2023/07/03 07:18:06;;;;;;;14.00;4.80;;;;;;;16.28;100.00;100889.81;5048391;28;20500;-58
2023/07/03 07:20:39;;;;;;;16.85;3.78;;;;;;;16.36;100.00;100891.63;5048075;28;20032;-57
2023/07/03 07:23:06;;;;;;;12.00;4.70;;;;;;;16.38;100.00;100895.13;5047799;28;20040;-57
2023/07/03 07:25:31;;;;;;;15.38;5.45;;;;;;;16.46;100.00;100888.22;5047800;28;20017;-60
2023/07/03 07:27:56;;;;;;;15.32;4.93;;;;;;;16.53;99.60;100892.66;5048024;28;20392;-59
2023/07/03 07:30:22;;;;;;;12.18;4.13;;;;;;;16.64;99.19;100891.88;5048152;28;20388;-57
2023/07/03 07:32:49;;;;;;;21.10;5.28;;;;;;;16.76;97.59;100896.31;5047391;28;20489;-59
2023/07/03 07:35:15;;;;;;;17.48;5.40;;;;;;;16.87;95.89;100896.38;5048171;28;20021;-58
2023/07/03 07:37:41;;;;;;;13.57;4.15;;;;;;;16.99;94.65;100893.84;5047320;28;20397;-57
2023/07/03 07:40:07;;;;;;;11.00;4.25;;;;;;;17.09;92.27;100891.28;5047839;28;20040;-58
2023/07/03 07:42:32;;;;;;;13.90;4.93;;;;;;;17.17;91.90;100900.09;5047457;28;20112;-58
2023/07/03 07:44:57;;;;;;;16.95;4.70;;;;;;;17.45;91.57;100892.34;5048409;28;20544;-59
2023/07/03 07:47:23;;;;;;;13.07;4.07;;;;;;;17.72;89.28;100898.56;5034877;28;20026;-58
2023/07/03 07:49:48;;;;;;;14.15;4.55;;;;;;;17.97;88.33;100890.75;5047684;28;20017;-59
2023/07/03 07:52:15;;;;;;;14.02;4.68;;;;;;;18.17;86.42;100895.19;5047386;28;20028;-57
2023/07/03 07:54:41;;;;;;;15.35;4.45;;;;;;;18.30;85.77;100893.47;5048145;28;20519;-59
2023/07/03 07:57:06;;;;;;;12.88;4.18;;;;;;;18.37;84.50;100896.97;5046941;28;20037;-58
2023/07/03 07:59:36;;;;;;;15.43;4.63;;;;;;;18.37;84.46;100899.59;5046635;28;20024;-59
2023/07/03 08:02:02;;;;;;;13.45;4.65;;;;;;;18.29;83.18;100906.59;5047933;28;20029;-58
2023/07/03 08:04:28;;;;;;;12.88;4.05;;;;;;;18.22;81.27;100901.31;5047499;28;20104;-57
2023/07/03 08:06:53;;;;;;;9.85;3.08;;;;;;;18.23;81.43;100908.34;5046997;28;20204;-58
2023/07/03 08:09:19;;;;;;;12.65;3.58;;;;;;;18.29;81.49;100906.59;5047890;28;20021;-58
2023/07/03 08:11:45;;;;;;;12.60;3.72;;;;;;;18.41;81.35;100909.22;5047938;28;20028;-58
2023/07/03 08:14:10;;;;;;;9.25;3.13;;;;;;;18.37;78.17;100910.06;5047492;28;20435;-58
2023/07/03 08:16:36;;;;;;;8.18;3.50;;;;;;;18.34;78.38;100915.31;5047756;28;20465;-59
2023/07/03 08:19:03;;;;;;;11.93;3.50;;;;;;;18.32;79.21;100914.44;5045386;28;20511;-59
2023/07/03 08:21:28;;;;;;;8.27;2.67;;;;;;;18.30;78.17;100908.31;5047127;28;20029;-59
2023/07/03 08:23:53;;;;;;;9.30;3.65;;;;;;;18.19;76.99;100914.44;5046669;28;20040;-59
2023/07/03 08:26:21;;;;;;;12.43;3.50;;;;;;;18.09;76.01;100917.88;5047163;28;20550;-59
2023/07/03 08:28:46;;;;;;;9.48;3.80;;;;;;;17.85;75.61;100922.19;5047552;28;20373;-59
2023/07/03 08:31:12;;;;;;;12.15;3.58;;;;;;;17.79;77.57;100922.19;5047468;28;20032;-59
2023/07/03 08:33:37;;;;;;;10.95;3.95;;;;;;;17.74;78.07;100920.41;5047223;28;20407;-58
2023/07/03 08:36:02;;;;;;;9.88;2.85;;;;;;;17.57;78.30;100929.97;5046139;28;20111;-59
2023/07/03 08:38:28;;;;;;;10.75;3.40;;;;;;;17.48;79.49;100929.06;5046731;28;20060;-58
2023/07/03 08:40:58;;;;;;;11.77;3.70;;;;;;;17.48;79.53;100928.19;5046419;28;20111;-58
2023/07/03 08:43:28;;;;;;;8.35;2.95;;;;;;;17.53;78.83;100936.94;5046744;28;20028;-57
2023/07/03 08:45:53;;;;;;;12.27;3.30;;;;;;;17.59;78.46;100942.19;5046926;28;20078;-59
2023/07/03 08:48:29;;;;;;;10.50;3.60;;;;;;;17.66;78.08;100943.09;5047311;28;20473;-58
2023/07/03 08:50:58;;;;;;;12.43;3.55;;;;;;;17.74;76.58;100941.38;5046780;28;20465;-58
2023/07/03 08:53:33;;;;;;;8.90;3.75;;;;;;;17.74;75.55;100936.13;5046691;28;20024;-57
2023/07/03 08:56:17;;;;;;;9.18;3.35;;;;;;;17.77;75.87;100946.63;5046734;28;20041;-58
2023/07/03 08:58:44;;;;;;;9.90;3.17;;;;;;;17.84;75.39;100941.41;5041593;28;20033;-58
2023/07/03 09:01:18;;;;;;;11.15;2.85;;;;;;;17.97;76.92;100943.19;5046909;28;20453;-59
2023/07/03 09:03:52;;;;;;;9.93;3.10;;;;;;;18.09;74.58;100939.75;5036606;28;20040;-59
2023/07/03 09:06:32;;;;;;;10.40;3.67;;;;;;;18.08;73.20;100945.00;5046427;28;20468;-59
2023/07/03 09:09:12;;;;;;;9.88;3.40;;;;;;;18.03;73.11;100939.72;5045076;28;20039;-59
2023/07/03 09:11:44;;;;;;;11.18;3.80;;;;;;;17.93;73.76;100940.56;5044060;28;20068;-59
2023/07/03 09:14:18;;;;;;;11.23;3.65;;;;;;;17.87;74.80;100937.06;5050072;28;20037;-58
2023/07/03 09:16:46;;;;;;;9.95;3.67;;;;;;;17.85;75.58;100937.91;5050715;28;20025;-59
2023/07/03 09:19:20;;;;;;;11.10;3.38;;;;;;;17.90;76.67;100933.56;5045747;28;20018;-59
2023/07/03 09:21:45;;;;;;;9.23;3.65;;;;;;;17.99;76.39;100935.31;5047347;28;20503;-59
2023/07/03 09:24:35;;;;;;;11.35;3.70;;;;;;;18.05;74.64;100930.13;5050334;28;20033;-59
2023/07/03 09:27:11;;;;;;;11.80;4.47;;;;;;;18.18;75.23;100925.81;5039339;28;20512;-59
2023/07/03 09:29:38;;;;;;;8.80;3.28;;;;;;;18.35;74.95;100922.31;5050510;28;20013;-59
2023/07/03 09:32:04;;;;;;;11.85;3.78;;;;;;;18.45;72.60;100931.97;5050606;28;20493;-59
2023/07/03 09:35:05;;;;;;;8.48;3.35;;;;;;;18.57;73.41;100927.56;5050290;28;20620;-59
2023/07/03 09:37:31;;;;;;;10.98;4.20;;;;;;;18.60;74.14;100930.22;5049572;28;20439;-59
2023/07/03 09:39:56;;;;;;;8.57;3.47;;;;;;;18.58;74.02;100934.59;5050393;28;20029;-59
2023/07/03 09:42:22;;;;;;;10.55;3.95;;;;;;;18.51;73.07;100943.34;5050545;28;20480;-59
2023/07/03 09:44:49;;;;;;;9.63;4.35;;;;;;;18.45;72.48;100939.84;5043206;28;20040;-58
2023/07/03 09:47:25;;;;;;;10.38;3.78;;;;;;;18.45;73.26;100933.69;5047085;28;20017;-57
2023/07/03 09:49:51;;;;;;;10.55;3.83;;;;;;;18.57;75.40;100941.56;5050456;28;20017;-58
2023/07/03 09:52:16;;;;;;;11.68;3.88;;;;;;;18.75;73.48;100939.81;5050097;28;20057;-58
2023/07/03 09:54:44;;;;;;;9.55;3.83;;;;;;;18.86;70.16;100934.56;5049963;28;20024;-58
2023/07/03 09:57:26;;;;;;;8.90;4.28;;;;;;;18.91;68.56;100929.28;5049506;28;20068;-57
2023/07/03 10:00:14;;;;;;;11.98;3.90;;;;;;;18.96;68.55;100931.03;5049600;28;20115;-59
2023/07/03 10:02:40;;;;;;;11.63;4.55;;;;;;;19.06;69.03;100937.16;5047004;28;20033;-58
2023/07/03 10:05:06;;;;;;;8.32;3.35;;;;;;;19.24;68.65;100940.66;5048655;28;20031;-58
2023/07/03 10:07:39;;;;;;;7.65;3.25;;;;;;;19.36;67.08;100942.38;5050078;28;20392;-58
2023/07/03 10:10:10;;;;;;;9.80;3.80;;;;;;;19.38;65.10;100937.09;5050258;28;20033;-58
2023/07/03 10:12:39;;;;;;;;;;;;;;;19.55;67.86;100942.31;5049851;28;20120;-58
2023/07/03 10:15:09;;;;;;;12.30;4.35;;;;;;;19.57;63.97;100945.81;5049607;28;20406;-58
2023/07/03 10:17:47;;;;;;;11.52;4.25;;;;;;;19.49;64.32;100945.84;5048225;28;20488;-58
2023/07/03 10:20:23;;;;;;;9.07;3.90;;;;;;;19.56;62.92;100944.06;5049371;28;20036;-57
2023/07/03 10:22:50;;;;;;;9.73;3.58;;;;;;;19.71;63.40;100950.13;5048311;28;20528;-59
2023/07/03 10:25:22;;;;;;;10.60;4.80;;;;;;;19.96;63.03;100950.00;5046644;28;20067;-58
2023/07/03 10:27:51;;;;;;;11.48;4.60;;;;;;;20.19;62.65;100944.63;5049075;28;20043;-60
2023/07/03 10:30:18;;;;;;;11.00;3.83;;;;;;;20.38;61.17;100947.16;5050313;28;20074;-59
2023/07/03 10:32:47;;;;;;;7.30;3.20;;;;;;;20.46;60.84;100954.97;5045908;28;20060;-59
2023/07/03 10:35:23;;;;;;;9.55;3.30;;;;;;;20.31;59.90;100950.72;5049849;28;20108;-59
2023/07/03 10:38:01;;;;;;;7.75;3.55;;;;;;;20.25;59.62;100951.63;5048583;28;20034;-59
2023/07/03 10:40:52;;;;;;;11.65;3.97;;;;;;;20.18;59.48;100952.53;5049930;28;20596;-59
2023/07/03 10:43:18;;;;;;;12.88;3.53;;;;;;;20.01;57.68;100953.47;5049251;28;20410;-57
2023/07/03 10:45:44;;;;;;;9.80;3.75;;;;;;;20.02;58.41;100949.97;5047797;28;20079;-60
2023/07/03 10:48:15;;;;;;;10.27;3.50;;;;;;;19.91;56.82;100950.88;5048001;28;20060;-60
2023/07/03 10:50:55;;;;;;;9.98;3.40;;;;;;;19.89;56.88;100946.53;5047340;28;20476;-60
2023/07/03 10:53:32;;;;;;;4.72;2.83;;;;;;;19.79;56.46;100966.72;5048403;28;20075;-60
2023/07/03 10:56:01;;;;;;;8.63;3.50;;;;;;;19.64;56.89;100955.44;5046465;28;20032;-60
2023/07/03 10:58:37;;;;;;;11.68;3.30;;;;;;;19.55;57.05;100965.97;5048445;28;20051;-60
2023/07/03 11:01:22;;;;;;;7.30;2.72;;;;;;;19.53;56.95;100950.22;5049826;28;20064;-59
2023/07/03 11:04:09;;;;;;;8.27;2.92;;;;;;;19.70;58.73;100954.50;5049281;28;20032;-60
2023/07/03 11:06:46;;;;;;;6.97;2.65;;;;;;;20.06;58.64;100946.47;5049220;28;20055;-60
2023/07/03 11:09:16;;;;;;;8.38;2.25;;;;;;;20.46;58.25;100957.59;5044459;28;20021;-59
2023/07/03 11:11:53;;;;;;;6.90;2.83;;;;;;;20.70;54.28;100953.03;5048965;28;20382;-59
2023/07/03 11:14:31;;;;;;;8.70;2.75;;;;;;;20.95;54.07;100958.09;5048157;28;20048;-59
2023/07/03 11:17:11;;;;;;;7.72;2.88;;;;;;;20.94;50.78;100938.78;5049055;28;20036;-59
2023/07/03 11:20:14;;;;;;;7.93;2.63;;;;;;;21.10;51.38;100947.41;5049336;28;20021;-59